sensor_id;sensor_type;location;lat;lon;timestamp;P1;durP1;ratioP1;P2;durP2;ratioP2
27357;SDS011;14831;50.474;7.616;2024-03-02T00:02:49;3.6;;;2.5;;
27357;SDS011;14831;50.474;7.616;2024-03-02T00:07:53;3.6;;;2.5;;
27357;SDS011;14831;50.474;7.616;2024-03-02T00:12:48;3.6;;;2.5;;
27357;SDS011;14831;50.474;7.616;2024-03-02T00:17:52;3.6;;;2.5;;
27357;SDS011;14831;50.474;7.616;2024-03-02T00:22:47;3.6;;;2.5;;
27357;SDS011;14831;50.474;7.616;2024-03-02T00:27:47;3.6;;;2.5;;
27357;SDS011;14831;50.474;7.616;2024-03-02T00:32:47;3.3;;;2.4;;
27357;SDS011;14831;50.474;7.616;2024-03-02T00:37:47;3.3;;;2.4;;
27357;SDS011;14831;50.474;7.616;2024-03-02T00:42:47;3.3;;;2.4;;
27357;SDS011;14831;50.474;7.616;2024-03-02T00:47:47;3.3;;;2.4;;
27357;SDS011;14831;50.474;7.616;2024-03-02T00:52:47;3.3;;;2.4;;
27357;SDS011;14831;50.474;7.616;2024-03-02T00:57:47;3.3;;;2.4;;
27357;SDS011;14831;50.474;7.616;2024-03-02T01:02:47;4.7;;;2.8;;
27357;SDS011;14831;50.474;7.616;2024-03-02T01:07:47;4.7;;;2.8;;
27357;SDS011;14831;50.474;7.616;2024-03-02T01:12:47;4.7;;;2.8;;
27357;SDS011;14831;50.474;7.616;2024-03-02T01:17:47;4.7;;;2.8;;
27357;SDS011;14831;50.474;7.616;2024-03-02T01:22:47;4.7;;;2.8;;
27357;SDS011;14831;50.474;7.616;2024-03-02T01:27:47;4.7;;;2.8;;
27357;SDS011;14831;50.474;7.616;2024-03-02T01:32:47;2.9;;;2.0;;
27357;SDS011;14831;50.474;7.616;2024-03-02T01:37:47;2.9;;;2.0;;
27357;SDS011;14831;50.474;7.616;2024-03-02T01:42:47;2.9;;;2.0;;
27357;SDS011;14831;50.474;7.616;2024-03-02T01:47:47;2.9;;;2.0;;
27357;SDS011;14831;50.474;7.616;2024-03-02T01:52:47;2.9;;;2.0;;
27357;SDS011;14831;50.474;7.616;2024-03-02T01:57:48;2.9;;;2.0;;
27357;SDS011;14831;50.474;7.616;2024-03-02T02:02:48;2.7;;;2.1;;
27357;SDS011;14831;50.474;7.616;2024-03-02T02:07:47;2.7;;;2.1;;
27357;SDS011;14831;50.474;7.616;2024-03-02T02:12:47;2.7;;;2.1;;
27357;SDS011;14831;50.474;7.616;2024-03-02T02:17:48;2.7;;;2.1;;
27357;SDS011;14831;50.474;7.616;2024-03-02T02:22:56;2.7;;;2.1;;
27357;SDS011;14831;50.474;7.616;2024-03-02T02:27:47;2.7;;;2.1;;
27357;SDS011;14831;50.474;7.616;2024-03-02T02:32:48;3.6;;;2.6;;
27357;SDS011;14831;50.474;7.616;2024-03-02T02:37:48;3.6;;;2.6;;
27357;SDS011;14831;50.474;7.616;2024-03-02T02:42:48;3.6;;;2.6;;
27357;SDS011;14831;50.474;7.616;2024-03-02T02:47:47;3.6;;;2.6;;
27357;SDS011;14831;50.474;7.616;2024-03-02T02:52:47;3.6;;;2.6;;
27357;SDS011;14831;50.474;7.616;2024-03-02T02:57:47;3.6;;;2.6;;
27357;SDS011;14831;50.474;7.616;2024-03-02T03:02:48;4.5;;;3.1;;
27357;SDS011;14831;50.474;7.616;2024-03-02T03:07:47;4.5;;;3.1;;
27357;SDS011;14831;50.474;7.616;2024-03-02T03:12:48;4.5;;;3.1;;
27357;SDS011;14831;50.474;7.616;2024-03-02T03:17:48;4.5;;;3.1;;
27357;SDS011;14831;50.474;7.616;2024-03-02T03:22:47;4.5;;;3.1;;
27357;SDS011;14831;50.474;7.616;2024-03-02T03:27:47;4.5;;;3.1;;
27357;SDS011;14831;50.474;7.616;2024-03-02T03:32:47;4.9;;;3.5;;
27357;SDS011;14831;50.474;7.616;2024-03-02T03:37:47;4.9;;;3.5;;
27357;SDS011;14831;50.474;7.616;2024-03-02T03:42:47;4.9;;;3.5;;
27357;SDS011;14831;50.474;7.616;2024-03-02T03:47:47;4.9;;;3.5;;
27357;SDS011;14831;50.474;7.616;2024-03-02T03:52:47;4.9;;;3.5;;
27357;SDS011;14831;50.474;7.616;2024-03-02T03:57:48;4.9;;;3.5;;
27357;SDS011;14831;50.474;7.616;2024-03-02T04:02:47;7.2;;;4.2;;
27357;SDS011;14831;50.474;7.616;2024-03-02T04:07:47;7.2;;;4.2;;
27357;SDS011;14831;50.474;7.616;2024-03-02T04:12:49;7.2;;;4.2;;
27357;SDS011;14831;50.474;7.616;2024-03-02T04:17:47;7.2;;;4.2;;
27357;SDS011;14831;50.474;7.616;2024-03-02T04:22:47;7.2;;;4.2;;
27357;SDS011;14831;50.474;7.616;2024-03-02T04:27:47;7.2;;;4.2;;
27357;SDS011;14831;50.474;7.616;2024-03-02T04:32:47;8.3;;;5.1;;
27357;SDS011;14831;50.474;7.616;2024-03-02T04:37:47;8.3;;;5.1;;
27357;SDS011;14831;50.474;7.616;2024-03-02T04:42:47;8.3;;;5.1;;
27357;SDS011;14831;50.474;7.616;2024-03-02T04:47:47;8.3;;;5.1;;
27357;SDS011;14831;50.474;7.616;2024-03-02T04:52:47;8.3;;;5.1;;
27357;SDS011;14831;50.474;7.616;2024-03-02T04:57:48;8.3;;;5.1;;
27357;SDS011;14831;50.474;7.616;2024-03-02T05:02:47;8.5;;;4.0;;
27357;SDS011;14831;50.474;7.616;2024-03-02T05:07:47;8.5;;;4.0;;
27357;SDS011;14831;50.474;7.616;2024-03-02T05:12:47;8.5;;;4.0;;
27357;SDS011;14831;50.474;7.616;2024-03-02T05:17:47;8.5;;;4.0;;
27357;SDS011;14831;50.474;7.616;2024-03-02T05:22:47;8.5;;;4.0;;
27357;SDS011;14831;50.474;7.616;2024-03-02T05:27:47;8.5;;;4.0;;
27357;SDS011;14831;50.474;7.616;2024-03-02T05:32:47;5.6;;;3.9;;
27357;SDS011;14831;50.474;7.616;2024-03-02T05:37:47;5.6;;;3.9;;
27357;SDS011;14831;50.474;7.616;2024-03-02T05:42:47;5.6;;;3.9;;
27357;SDS011;14831;50.474;7.616;2024-03-02T05:47:47;5.6;;;3.9;;
27357;SDS011;14831;50.474;7.616;2024-03-02T05:52:47;5.6;;;3.9;;
27357;SDS011;14831;50.474;7.616;2024-03-02T05:57:47;5.6;;;3.9;;
27357;SDS011;14831;50.474;7.616;2024-03-02T06:02:47;5.8;;;3.6;;
27357;SDS011;14831;50.474;7.616;2024-03-02T06:07:47;5.8;;;3.6;;
27357;SDS011;14831;50.474;7.616;2024-03-02T06:12:47;5.8;;;3.6;;
27357;SDS011;14831;50.474;7.616;2024-03-02T06:17:47;5.8;;;3.6;;
27357;SDS011;14831;50.474;7.616;2024-03-02T06:22:47;5.8;;;3.6;;
27357;SDS011;14831;50.474;7.616;2024-03-02T06:27:47;5.8;;;3.6;;
27357;SDS011;14831;50.474;7.616;2024-03-02T06:32:47;6.0;;;4.0;;
27357;SDS011;14831;50.474;7.616;2024-03-02T06:37:47;6.0;;;4.0;;
27357;SDS011;14831;50.474;7.616;2024-03-02T06:42:47;6.0;;;4.0;;
27357;SDS011;14831;50.474;7.616;2024-03-02T06:47:47;6.0;;;4.0;;
27357;SDS011;14831;50.474;7.616;2024-03-02T06:52:47;6.0;;;4.0;;
27357;SDS011;14831;50.474;7.616;2024-03-02T06:57:48;6.0;;;4.0;;
27357;SDS011;14831;50.474;7.616;2024-03-02T07:02:47;4.8;;;3.2;;
27357;SDS011;14831;50.474;7.616;2024-03-02T07:07:47;4.8;;;3.2;;
27357;SDS011;14831;50.474;7.616;2024-03-02T07:12:47;4.8;;;3.2;;
27357;SDS011;14831;50.474;7.616;2024-03-02T07:17:47;4.8;;;3.2;;
27357;SDS011;14831;50.474;7.616;2024-03-02T07:22:47;4.8;;;3.2;;
27357;SDS011;14831;50.474;7.616;2024-03-02T07:27:47;4.8;;;3.2;;
27357;SDS011;14831;50.474;7.616;2024-03-02T07:32:50;6.4;;;3.6;;
27357;SDS011;14831;50.474;7.616;2024-03-02T07:37:47;6.4;;;3.6;;
27357;SDS011;14831;50.474;7.616;2024-03-02T07:42:47;6.4;;;3.6;;
27357;SDS011;14831;50.474;7.616;2024-03-02T07:47:47;6.4;;;3.6;;
27357;SDS011;14831;50.474;7.616;2024-03-02T07:52:47;6.4;;;3.6;;
27357;SDS011;14831;50.474;7.616;2024-03-02T07:57:48;6.4;;;3.6;;
27357;SDS011;14831;50.474;7.616;2024-03-02T08:02:47;5.3;;;3.1;;
27357;SDS011;14831;50.474;7.616;2024-03-02T08:07:48;5.3;;;3.1;;
27357;SDS011;14831;50.474;7.616;2024-03-02T08:12:47;5.3;;;3.1;;
27357;SDS011;14831;50.474;7.616;2024-03-02T08:17:47;5.3;;;3.1;;
27357;SDS011;14831;50.474;7.616;2024-03-02T08:22:47;5.3;;;3.1;;
27357;SDS011;14831;50.474;7.616;2024-03-02T08:27:47;5.3;;;3.1;;
27357;SDS011;14831;50.474;7.616;2024-03-02T08:32:47;3.9;;;3.2;;
27357;SDS011;14831;50.474;7.616;2024-03-02T08:37:47;3.9;;;3.2;;
27357;SDS011;14831;50.474;7.616;2024-03-02T08:42:47;3.9;;;3.2;;
27357;SDS011;14831;50.474;7.616;2024-03-02T08:47:48;3.9;;;3.2;;
27357;SDS011;14831;50.474;7.616;2024-03-02T08:52:47;3.9;;;3.2;;
27357;SDS011;14831;50.474;7.616;2024-03-02T08:57:47;3.9;;;3.2;;
27357;SDS011;14831;50.474;7.616;2024-03-02T09:02:47;3.9;;;3.2;;
27357;SDS011;14831;50.474;7.616;2024-03-02T09:07:47;3.9;;;3.0;;
27357;SDS011;14831;50.474;7.616;2024-03-02T09:12:47;3.9;;;3.0;;
27357;SDS011;14831;50.474;7.616;2024-03-02T09:17:47;3.9;;;3.0;;
27357;SDS011;14831;50.474;7.616;2024-03-02T09:22:47;3.9;;;3.0;;
27357;SDS011;14831;50.474;7.616;2024-03-02T09:27:47;3.9;;;3.0;;
27357;SDS011;14831;50.474;7.616;2024-03-02T09:32:47;3.7;;;2.5;;
27357;SDS011;14831;50.474;7.616;2024-03-02T09:37:47;3.7;;;2.5;;
27357;SDS011;14831;50.474;7.616;2024-03-02T09:42:48;3.7;;;2.5;;
27357;SDS011;14831;50.474;7.616;2024-03-02T09:47:47;3.7;;;2.5;;
27357;SDS011;14831;50.474;7.616;2024-03-02T09:52:48;3.7;;;2.5;;
27357;SDS011;14831;50.474;7.616;2024-03-02T09:57:47;3.7;;;2.5;;
27357;SDS011;14831;50.474;7.616;2024-03-02T10:02:47;3.7;;;2.3;;
27357;SDS011;14831;50.474;7.616;2024-03-02T10:07:58;3.7;;;2.3;;
27357;SDS011;14831;50.474;7.616;2024-03-02T10:12:47;3.7;;;2.3;;
27357;SDS011;14831;50.474;7.616;2024-03-02T10:17:47;3.7;;;2.3;;
27357;SDS011;14831;50.474;7.616;2024-03-02T10:22:47;3.7;;;2.3;;
27357;SDS011;14831;50.474;7.616;2024-03-02T10:27:50;3.7;;;2.3;;
27357;SDS011;14831;50.474;7.616;2024-03-02T10:32:48;3.6;;;2.2;;
27357;SDS011;14831;50.474;7.616;2024-03-02T10:37:48;3.6;;;2.2;;
27357;SDS011;14831;50.474;7.616;2024-03-02T10:42:47;3.6;;;2.2;;
27357;SDS011;14831;50.474;7.616;2024-03-02T10:47:48;3.6;;;2.2;;
27357;SDS011;14831;50.474;7.616;2024-03-02T10:52:47;3.6;;;2.2;;
27357;SDS011;14831;50.474;7.616;2024-03-02T10:57:50;3.6;;;2.2;;
27357;SDS011;14831;50.474;7.616;2024-03-02T11:02:51;13.3;;;9.8;;
27357;SDS011;14831;50.474;7.616;2024-03-02T11:07:48;13.3;;;9.8;;
27357;SDS011;14831;50.474;7.616;2024-03-02T11:12:52;13.3;;;9.8;;
27357;SDS011;14831;50.474;7.616;2024-03-02T11:17:48;13.3;;;9.8;;
27357;SDS011;14831;50.474;7.616;2024-03-02T11:22:47;13.3;;;9.8;;
27357;SDS011;14831;50.474;7.616;2024-03-02T11:28:05;13.3;;;9.8;;
27357;SDS011;14831;50.474;7.616;2024-03-02T11:32:54;3.9;;;2.8;;
27357;SDS011;14831;50.474;7.616;2024-03-02T11:37:47;3.9;;;2.8;;
27357;SDS011;14831;50.474;7.616;2024-03-02T11:42:48;3.9;;;2.8;;
27357;SDS011;14831;50.474;7.616;2024-03-02T11:47:50;3.9;;;2.8;;
27357;SDS011;14831;50.474;7.616;2024-03-02T11:52:47;3.9;;;2.8;;
27357;SDS011;14831;50.474;7.616;2024-03-02T11:57:48;3.9;;;2.8;;
27357;SDS011;14831;50.474;7.616;2024-03-02T12:03:00;4.6;;;2.8;;
27357;SDS011;14831;50.474;7.616;2024-03-02T12:07:47;4.6;;;2.8;;
27357;SDS011;14831;50.474;7.616;2024-03-02T12:12:47;4.6;;;2.8;;
27357;SDS011;14831;50.474;7.616;2024-03-02T12:17:47;4.6;;;2.8;;
27357;SDS011;14831;50.474;7.616;2024-03-02T12:22:47;4.6;;;2.8;;
27357;SDS011;14831;50.474;7.616;2024-03-02T12:27:49;4.6;;;2.8;;
27357;SDS011;14831;50.474;7.616;2024-03-02T12:32:48;1.9;;;1.7;;
27357;SDS011;14831;50.474;7.616;2024-03-02T12:37:48;1.9;;;1.7;;
27357;SDS011;14831;50.474;7.616;2024-03-02T12:42:48;1.9;;;1.7;;
27357;SDS011;14831;50.474;7.616;2024-03-02T12:47:47;1.9;;;1.7;;
27357;SDS011;14831;50.474;7.616;2024-03-02T12:52:51;1.9;;;1.7;;
27357;SDS011;14831;50.474;7.616;2024-03-02T12:57:49;1.9;;;1.7;;
27357;SDS011;14831;50.474;7.616;2024-03-02T13:02:48;2.8;;;1.6;;
27357;SDS011;14831;50.474;7.616;2024-03-02T13:07:48;2.8;;;1.6;;
27357;SDS011;14831;50.474;7.616;2024-03-02T13:12:47;2.8;;;1.6;;
27357;SDS011;14831;50.474;7.616;2024-03-02T13:17:48;2.8;;;1.6;;
27357;SDS011;14831;50.474;7.616;2024-03-02T13:22:47;2.8;;;1.6;;
27357;SDS011;14831;50.474;7.616;2024-03-02T13:27:47;2.8;;;1.6;;
27357;SDS011;14831;50.474;7.616;2024-03-02T13:32:47;2.8;;;1.6;;
27357;SDS011;14831;50.474;7.616;2024-03-02T13:37:47;2.4;;;1.6;;
27357;SDS011;14831;50.474;7.616;2024-03-02T13:42:47;2.4;;;1.6;;
27357;SDS011;14831;50.474;7.616;2024-03-02T13:47:47;2.4;;;1.6;;
27357;SDS011;14831;50.474;7.616;2024-03-02T13:52:47;2.4;;;1.6;;
27357;SDS011;14831;50.474;7.616;2024-03-02T13:57:48;2.4;;;1.6;;
27357;SDS011;14831;50.474;7.616;2024-03-02T14:02:48;2.4;;;1.6;;
27357;SDS011;14831;50.474;7.616;2024-03-02T14:07:47;1.2;;;1.0;;
27357;SDS011;14831;50.474;7.616;2024-03-02T14:12:47;1.2;;;1.0;;
27357;SDS011;14831;50.474;7.616;2024-03-02T14:17:48;1.2;;;1.0;;
27357;SDS011;14831;50.474;7.616;2024-03-02T14:22:48;1.2;;;1.0;;
27357;SDS011;14831;50.474;7.616;2024-03-02T14:27:47;1.2;;;1.0;;
27357;SDS011;14831;50.474;7.616;2024-03-02T14:32:47;1.2;;;1.0;;
27357;SDS011;14831;50.474;7.616;2024-03-02T14:37:47;1.4;;;1.0;;
27357;SDS011;14831;50.474;7.616;2024-03-02T14:42:47;1.4;;;1.0;;
27357;SDS011;14831;50.474;7.616;2024-03-02T14:47:47;1.4;;;1.0;;
27357;SDS011;14831;50.474;7.616;2024-03-02T14:52:47;1.4;;;1.0;;
27357;SDS011;14831;50.474;7.616;2024-03-02T14:57:47;1.4;;;1.0;;
27357;SDS011;14831;50.474;7.616;2024-03-02T15:02:47;1.4;;;1.0;;
27357;SDS011;14831;50.474;7.616;2024-03-02T15:07:47;1.8;;;1.6;;
27357;SDS011;14831;50.474;7.616;2024-03-02T15:12:47;1.8;;;1.6;;
27357;SDS011;14831;50.474;7.616;2024-03-02T15:17:47;1.8;;;1.6;;
27357;SDS011;14831;50.474;7.616;2024-03-02T15:22:47;1.8;;;1.6;;
27357;SDS011;14831;50.474;7.616;2024-03-02T15:27:47;1.8;;;1.6;;
27357;SDS011;14831;50.474;7.616;2024-03-02T15:32:48;1.8;;;1.6;;
27357;SDS011;14831;50.474;7.616;2024-03-02T15:37:47;3.5;;;2.2;;
27357;SDS011;14831;50.474;7.616;2024-03-02T15:42:47;3.5;;;2.2;;
27357;SDS011;14831;50.474;7.616;2024-03-02T15:47:47;3.5;;;2.2;;
27357;SDS011;14831;50.474;7.616;2024-03-02T15:52:47;3.5;;;2.2;;
27357;SDS011;14831;50.474;7.616;2024-03-02T15:57:47;3.5;;;2.2;;
27357;SDS011;14831;50.474;7.616;2024-03-02T16:02:47;3.5;;;2.2;;
27357;SDS011;14831;50.474;7.616;2024-03-02T16:07:47;4.0;;;2.0;;
27357;SDS011;14831;50.474;7.616;2024-03-02T16:12:47;4.0;;;2.0;;
27357;SDS011;14831;50.474;7.616;2024-03-02T16:17:47;4.0;;;2.0;;
27357;SDS011;14831;50.474;7.616;2024-03-02T16:22:47;4.0;;;2.0;;
27357;SDS011;14831;50.474;7.616;2024-03-02T16:27:47;4.0;;;2.0;;
27357;SDS011;14831;50.474;7.616;2024-03-02T16:32:47;4.0;;;2.0;;
27357;SDS011;14831;50.474;7.616;2024-03-02T16:37:47;1.5;;;1.3;;
27357;SDS011;14831;50.474;7.616;2024-03-02T16:42:47;1.5;;;1.3;;
27357;SDS011;14831;50.474;7.616;2024-03-02T16:47:47;1.5;;;1.3;;
27357;SDS011;14831;50.474;7.616;2024-03-02T16:52:47;1.5;;;1.3;;
27357;SDS011;14831;50.474;7.616;2024-03-02T16:57:48;1.5;;;1.3;;
27357;SDS011;14831;50.474;7.616;2024-03-02T17:02:47;1.5;;;1.3;;
27357;SDS011;14831;50.474;7.616;2024-03-02T17:07:48;3.9;;;2.1;;
27357;SDS011;14831;50.474;7.616;2024-03-02T17:12:47;3.9;;;2.1;;
27357;SDS011;14831;50.474;7.616;2024-03-02T17:17:47;3.9;;;2.1;;
27357;SDS011;14831;50.474;7.616;2024-03-02T17:22:47;3.9;;;2.1;;
27357;SDS011;14831;50.474;7.616;2024-03-02T17:27:48;3.9;;;2.1;;
27357;SDS011;14831;50.474;7.616;2024-03-02T17:32:47;3.9;;;2.1;;
27357;SDS011;14831;50.474;7.616;2024-03-02T17:37:47;8.7;;;4.4;;
27357;SDS011;14831;50.474;7.616;2024-03-02T17:42:47;8.7;;;4.4;;
27357;SDS011;14831;50.474;7.616;2024-03-02T17:47:47;8.7;;;4.4;;
27357;SDS011;14831;50.474;7.616;2024-03-02T17:52:47;8.7;;;4.4;;
27357;SDS011;14831;50.474;7.616;2024-03-02T17:57:47;8.7;;;4.4;;
27357;SDS011;14831;50.474;7.616;2024-03-02T18:02:48;8.7;;;4.4;;
27357;SDS011;14831;50.474;7.616;2024-03-02T18:07:47;8.7;;;5.6;;
27357;SDS011;14831;50.474;7.616;2024-03-02T18:12:47;8.7;;;5.6;;
27357;SDS011;14831;50.474;7.616;2024-03-02T18:17:47;8.7;;;5.6;;
27357;SDS011;14831;50.474;7.616;2024-03-02T18:22:47;8.7;;;5.6;;
27357;SDS011;14831;50.474;7.616;2024-03-02T18:27:47;8.7;;;5.6;;
27357;SDS011;14831;50.474;7.616;2024-03-02T18:32:47;8.7;;;5.6;;
27357;SDS011;14831;50.474;7.616;2024-03-02T18:37:47;7.0;;;5.1;;
27357;SDS011;14831;50.474;7.616;2024-03-02T18:42:47;7.0;;;5.1;;
27357;SDS011;14831;50.474;7.616;2024-03-02T18:47:47;7.0;;;5.1;;
27357;SDS011;14831;50.474;7.616;2024-03-02T18:52:47;7.0;;;5.1;;
27357;SDS011;14831;50.474;7.616;2024-03-02T18:57:47;7.0;;;5.1;;
27357;SDS011;14831;50.474;7.616;2024-03-02T19:02:47;7.0;;;5.1;;
27357;SDS011;14831;50.474;7.616;2024-03-02T19:07:47;5.8;;;4.6;;
27357;SDS011;14831;50.474;7.616;2024-03-02T19:12:47;5.8;;;4.6;;
27357;SDS011;14831;50.474;7.616;2024-03-02T19:17:47;5.8;;;4.6;;
27357;SDS011;14831;50.474;7.616;2024-03-02T19:22:47;5.8;;;4.6;;
27357;SDS011;14831;50.474;7.616;2024-03-02T19:27:48;5.8;;;4.6;;
27357;SDS011;14831;50.474;7.616;2024-03-02T19:32:47;5.8;;;4.6;;
27357;SDS011;14831;50.474;7.616;2024-03-02T19:37:47;7.4;;;4.7;;
27357;SDS011;14831;50.474;7.616;2024-03-02T19:42:47;7.4;;;4.7;;
27357;SDS011;14831;50.474;7.616;2024-03-02T19:47:47;7.4;;;4.7;;
27357;SDS011;14831;50.474;7.616;2024-03-02T19:52:47;7.4;;;4.7;;
27357;SDS011;14831;50.474;7.616;2024-03-02T19:57:47;7.4;;;4.7;;
27357;SDS011;14831;50.474;7.616;2024-03-02T20:02:47;7.4;;;4.7;;
27357;SDS011;14831;50.474;7.616;2024-03-02T20:07:47;6.9;;;4.8;;
27357;SDS011;14831;50.474;7.616;2024-03-02T20:12:47;6.9;;;4.8;;
27357;SDS011;14831;50.474;7.616;2024-03-02T20:17:49;6.9;;;4.8;;
27357;SDS011;14831;50.474;7.616;2024-03-02T20:22:47;6.9;;;4.8;;
27357;SDS011;14831;50.474;7.616;2024-03-02T20:27:47;6.9;;;4.8;;
27357;SDS011;14831;50.474;7.616;2024-03-02T20:32:47;6.9;;;4.8;;
27357;SDS011;14831;50.474;7.616;2024-03-02T20:37:47;8.4;;;5.0;;
27357;SDS011;14831;50.474;7.616;2024-03-02T20:42:47;8.4;;;5.0;;
27357;SDS011;14831;50.474;7.616;2024-03-02T20:47:47;8.4;;;5.0;;
27357;SDS011;14831;50.474;7.616;2024-03-02T20:52:47;8.4;;;5.0;;
27357;SDS011;14831;50.474;7.616;2024-03-02T20:57:47;8.4;;;5.0;;
27357;SDS011;14831;50.474;7.616;2024-03-02T21:02:47;8.4;;;5.0;;
27357;SDS011;14831;50.474;7.616;2024-03-02T21:07:47;9.1;;;6.6;;
27357;SDS011;14831;50.474;7.616;2024-03-02T21:12:47;9.1;;;6.6;;
27357;SDS011;14831;50.474;7.616;2024-03-02T21:17:48;9.1;;;6.6;;
27357;SDS011;14831;50.474;7.616;2024-03-02T21:22:47;9.1;;;6.6;;
27357;SDS011;14831;50.474;7.616;2024-03-02T21:27:47;9.1;;;6.6;;
27357;SDS011;14831;50.474;7.616;2024-03-02T21:32:51;9.1;;;6.6;;
27357;SDS011;14831;50.474;7.616;2024-03-02T21:37:47;12.2;;;7.7;;
27357;SDS011;14831;50.474;7.616;2024-03-02T21:42:47;12.2;;;7.7;;
27357;SDS011;14831;50.474;7.616;2024-03-02T21:47:47;12.2;;;7.7;;
27357;SDS011;14831;50.474;7.616;2024-03-02T21:52:47;12.2;;;7.7;;
27357;SDS011;14831;50.474;7.616;2024-03-02T21:57:47;12.2;;;7.7;;
27357;SDS011;14831;50.474;7.616;2024-03-02T22:02:47;12.2;;;7.7;;
27357;SDS011;14831;50.474;7.616;2024-03-02T22:07:47;15.5;;;10.0;;
27357;SDS011;14831;50.474;7.616;2024-03-02T22:12:47;15.5;;;10.0;;
27357;SDS011;14831;50.474;7.616;2024-03-02T22:17:47;15.5;;;10.0;;
27357;SDS011;14831;50.474;7.616;2024-03-02T22:22:47;15.5;;;10.0;;
27357;SDS011;14831;50.474;7.616;2024-03-02T22:27:47;15.5;;;10.0;;
27357;SDS011;14831;50.474;7.616;2024-03-02T22:32:47;15.5;;;10.0;;
27357;SDS011;14831;50.474;7.616;2024-03-02T22:37:47;16.6;;;10.2;;
27357;SDS011;14831;50.474;7.616;2024-03-02T22:42:47;16.6;;;10.2;;
27357;SDS011;14831;50.474;7.616;2024-03-02T22:47:47;16.6;;;10.2;;
27357;SDS011;14831;50.474;7.616;2024-03-02T22:52:47;16.6;;;10.2;;
27357;SDS011;14831;50.474;7.616;2024-03-02T22:57:47;16.6;;;10.2;;
27357;SDS011;14831;50.474;7.616;2024-03-02T23:02:47;16.6;;;10.2;;
27357;SDS011;14831;50.474;7.616;2024-03-02T23:07:47;15.7;;;9.9;;
27357;SDS011;14831;50.474;7.616;2024-03-02T23:12:47;15.7;;;9.9;;
27357;SDS011;14831;50.474;7.616;2024-03-02T23:17:47;15.7;;;9.9;;
27357;SDS011;14831;50.474;7.616;2024-03-02T23:22:47;15.7;;;9.9;;
27357;SDS011;14831;50.474;7.616;2024-03-02T23:27:47;15.7;;;9.9;;
27357;SDS011;14831;50.474;7.616;2024-03-02T23:32:47;15.7;;;9.9;;
27357;SDS011;14831;50.474;7.616;2024-03-02T23:37:48;21.1;;;11.5;;
27357;SDS011;14831;50.474;7.616;2024-03-02T23:42:47;21.1;;;11.5;;
27357;SDS011;14831;50.474;7.616;2024-03-02T23:47:47;21.1;;;11.5;;
27357;SDS011;14831;50.474;7.616;2024-03-02T23:52:48;21.1;;;11.5;;
27357;SDS011;14831;50.474;7.616;2024-03-02T23:57:47;21.1;;;11.5;;
